createdAt,value
2018-06-08T00:01:43.723Z,33.77
2018-06-08T00:04:12.654Z,33.50
2018-06-08T00:06:41.542Z,33.40
2018-06-08T00:09:10.434Z,34.60
2018-06-08T00:11:39.397Z,32.70
2018-06-08T00:14:08.397Z,31.67
2018-06-08T00:16:37.426Z,30.03
2018-06-08T00:19:06.424Z,29.10
2018-06-08T00:21:35.465Z,29.60
2018-06-08T00:24:04.673Z,26.47
2018-06-08T00:26:33.692Z,27.80
2018-06-08T00:29:02.835Z,29.37
2018-06-08T00:31:31.900Z,30.17
2018-06-08T00:34:02.528Z,28.37
2018-06-08T00:36:33.728Z,29.33
2018-06-08T00:39:06.567Z,28.73
2018-06-08T00:41:38.352Z,27.53
2018-06-08T00:44:10.018Z,26.57
2018-06-08T00:46:40.746Z,27.87
2018-06-08T00:49:12.264Z,26.37
2018-06-08T00:51:44.540Z,26.67
2018-06-08T00:54:15.398Z,27.67
2018-06-08T00:56:55.681Z,25.70
2018-06-08T00:59:26.280Z,29.30
2018-06-08T01:01:57.710Z,27.20
2018-06-08T01:04:27.755Z,27.70
2018-06-08T01:06:57.863Z,29.13
2018-06-08T01:09:28.741Z,27.57
2018-06-08T01:11:59.449Z,30.23
2018-06-08T01:14:34.290Z,31.23
2018-06-08T01:17:04.871Z,27.27
2018-06-08T01:19:35.840Z,28.30
2018-06-08T01:22:06.168Z,28.50
2018-06-08T01:24:38.585Z,27.20
2018-06-08T01:27:09.668Z,27.30
2018-06-08T01:29:40.829Z,29.57
2018-06-08T01:32:12.221Z,28.93
2018-06-08T01:34:44.206Z,30.27
2018-06-08T01:37:15.479Z,30.17
2018-06-08T01:39:48.220Z,31.07
2018-06-08T01:42:18.896Z,33.37
2018-06-08T01:44:47.690Z,31.43
2018-06-08T01:47:16.596Z,32.73
2018-06-08T01:49:45.502Z,33.20
2018-06-08T01:52:14.350Z,31.70
2018-06-08T01:54:43.275Z,30.27
2018-06-08T01:57:13.939Z,37.73
2018-06-08T01:59:44.441Z,33.93
2018-06-08T02:02:15.640Z,33.57
2018-06-08T02:04:46.407Z,33.83
2018-06-08T02:07:17.464Z,33.93
2018-06-08T02:09:47.893Z,33.17
2018-06-08T02:12:19.635Z,34.53
2018-06-08T02:14:51.305Z,35.40
2018-06-08T02:17:22.607Z,34.40
2018-06-08T02:19:54.491Z,35.03
2018-06-08T02:22:26.672Z,34.87
2018-06-08T02:24:58.413Z,34.77
2018-06-08T02:27:28.871Z,34.73
2018-06-08T02:30:00.048Z,35.37
2018-06-08T02:32:34.708Z,38.47
2018-06-08T02:35:03.615Z,37.43
2018-06-08T02:37:32.665Z,39.67
2018-06-08T02:40:01.556Z,40.40
2018-06-08T02:42:30.436Z,38.13
2018-06-08T02:45:00.517Z,38.47
2018-06-08T02:47:33.662Z,39.00
2018-06-08T02:50:04.306Z,38.57
2018-06-08T02:52:37.047Z,44.50
2018-06-08T02:55:09.972Z,39.90
2018-06-08T02:57:41.830Z,42.80
2018-06-08T03:00:13.474Z,41.90
2018-06-08T03:02:45.182Z,42.80
2018-06-08T03:05:16.105Z,44.83
2018-06-08T03:07:44.998Z,42.27
2018-06-08T03:10:13.874Z,46.47
2018-06-08T03:12:43.308Z,42.97
2018-06-08T03:15:12.326Z,44.77
2018-06-08T03:17:41.186Z,47.63
2018-06-08T03:20:10.124Z,46.63
2018-06-08T03:22:38.965Z,48.17
2018-06-08T03:25:07.852Z,49.83
2018-06-08T03:27:39.484Z,45.67
2018-06-08T03:30:11.989Z,43.47
2018-06-08T03:32:42.962Z,46.30
2018-06-08T03:35:13.872Z,44.80
2018-06-08T03:37:46.752Z,49.73
2018-06-08T03:40:17.152Z,48.03
2018-06-08T03:42:48.863Z,47.57
2018-06-08T03:45:19.465Z,46.73
2018-06-08T03:47:48.399Z,47.13
2018-06-08T03:50:17.444Z,45.73
2018-06-08T03:52:48.630Z,50.67
2018-06-08T03:55:19.711Z,48.87
2018-06-08T03:57:52.845Z,51.53
2018-06-08T04:00:25.368Z,46.90
2018-06-08T04:02:54.233Z,43.40
2018-06-08T04:05:23.313Z,49.23
2018-06-08T04:07:52.709Z,47.90
2018-06-08T04:10:22.892Z,48.53
2018-06-08T04:12:53.329Z,44.27
2018-06-08T04:15:27.260Z,49.23
2018-06-08T04:17:58.227Z,48.57
2018-06-08T04:20:29.225Z,46.43
2018-06-08T04:23:00.027Z,42.87
2018-06-08T04:25:30.698Z,51.60
2018-06-08T04:28:02.001Z,45.10
2018-06-08T04:30:31.647Z,46.30
2018-06-08T04:33:01.577Z,44.20
2018-06-08T04:35:32.246Z,47.30
2018-06-08T04:38:01.809Z,49.07
2018-06-08T04:40:32.949Z,49.67
2018-06-08T04:43:03.589Z,44.67
2018-06-08T04:45:34.204Z,45.77
2018-06-08T04:48:06.529Z,43.33
2018-06-08T04:50:36.379Z,46.23
2018-06-08T04:53:06.653Z,42.60
2018-06-08T04:55:36.441Z,45.73
2018-06-08T04:58:05.881Z,49.40
2018-06-08T05:00:35.202Z,48.37
2018-06-08T05:03:05.730Z,48.40
2018-06-08T05:05:35.159Z,48.63
2018-06-08T05:08:04.590Z,46.73
2018-06-08T05:10:35.187Z,50.80
2018-06-08T05:13:04.810Z,52.80
2018-06-08T05:15:34.518Z,57.00
2018-06-08T05:18:05.192Z,53.87
2018-06-08T05:20:35.257Z,50.53
2018-06-08T05:23:05.183Z,53.30
2018-06-08T05:25:34.623Z,50.67
2018-06-08T05:28:03.727Z,54.00
2018-06-08T05:30:33.356Z,56.60
2018-06-08T05:33:02.633Z,55.37
2018-06-08T05:35:32.410Z,58.30
2018-06-08T05:38:05.581Z,53.93
2018-06-08T05:40:34.893Z,54.67
2018-06-08T05:43:04.857Z,56.33
2018-06-08T05:45:34.578Z,65.07
2018-06-08T05:48:04.068Z,57.67
2018-06-08T05:50:34.513Z,59.73
2018-06-08T05:53:04.364Z,58.10
2018-06-08T05:55:33.172Z,59.40
2018-06-08T05:58:02.626Z,60.33
2018-06-08T06:00:31.456Z,68.47
2018-06-08T06:03:00.250Z,61.13
2018-06-08T06:05:28.577Z,64.17
2018-06-08T06:07:57.281Z,65.93
2018-06-08T06:10:26.050Z,61.93
2018-06-08T06:12:54.749Z,57.37
2018-06-08T06:15:23.469Z,66.07
2018-06-08T06:17:51.833Z,68.20
2018-06-08T06:20:20.571Z,60.40
2018-06-08T06:22:49.403Z,58.80
2018-06-08T06:25:18.181Z,54.13
2018-06-08T06:27:46.984Z,57.80
2018-06-08T06:30:15.843Z,62.53
2018-06-08T06:32:44.804Z,54.67
2018-06-08T06:35:13.788Z,57.17
2018-06-08T06:37:45.548Z,56.70
2018-06-08T06:40:14.384Z,55.30
2018-06-08T06:42:43.413Z,61.13
2018-06-08T06:45:12.333Z,55.50
2018-06-08T06:47:41.121Z,58.53
2018-06-08T06:50:09.999Z,57.90
2018-06-08T06:52:38.939Z,61.77
2018-06-08T06:55:07.837Z,72.53
2018-06-08T06:57:37.004Z,60.60
2018-06-08T07:00:08.822Z,63.00
2018-06-08T07:02:37.637Z,62.33
2018-06-08T07:05:06.571Z,63.63
2018-06-08T07:07:35.344Z,64.03
2018-06-08T07:10:04.399Z,60.10
2018-06-08T07:12:33.409Z,64.80
2018-06-08T07:15:02.345Z,58.53
2018-06-08T07:17:31.174Z,58.83
2018-06-08T07:20:00.070Z,61.87
2018-06-08T07:22:29.136Z,64.17
2018-06-08T07:24:57.973Z,60.30
2018-06-08T07:27:26.957Z,60.13
2018-06-08T07:29:55.862Z,61.23
2018-06-08T07:32:24.715Z,62.20
2018-06-08T07:34:53.720Z,65.90
2018-06-08T07:37:22.769Z,64.27
2018-06-08T07:39:52.284Z,62.87
2018-06-08T07:42:21.031Z,61.53
2018-06-08T07:44:50.012Z,61.87
2018-06-08T07:47:18.961Z,60.37
2018-06-08T07:49:48.065Z,61.60
2018-06-08T07:52:16.595Z,62.80
2018-06-08T07:54:45.402Z,59.93
2018-06-08T07:57:14.260Z,63.13
2018-06-08T07:59:43.145Z,61.47
2018-06-08T08:02:12.058Z,59.47
2018-06-08T08:04:40.859Z,60.93
2018-06-08T08:07:09.710Z,59.27
2018-06-08T08:09:38.560Z,61.20
2018-06-08T08:12:07.518Z,64.13
2018-06-08T08:14:36.354Z,63.83
2018-06-08T08:17:05.554Z,63.23
2018-06-08T08:19:34.368Z,62.73
2018-06-08T08:22:03.409Z,62.73
2018-06-08T08:24:32.269Z,63.20
2018-06-08T08:27:01.355Z,61.13
2018-06-08T08:29:30.117Z,72.37
2018-06-08T08:31:59.154Z,63.07
2018-06-08T08:34:28.050Z,63.43
2018-06-08T08:36:56.940Z,64.83
2018-06-08T08:39:25.376Z,66.07
2018-06-08T08:41:54.251Z,65.20
2018-06-08T08:44:23.117Z,72.80
2018-06-08T08:46:52.174Z,69.17
2018-06-08T08:49:21.112Z,70.67
2018-06-08T08:51:50.023Z,74.70
2018-06-08T08:54:19.054Z,79.00
2018-06-08T08:56:48.246Z,85.63
2018-06-08T08:59:20.164Z,84.70
2018-06-08T09:01:52.754Z,86.57
2018-06-08T09:04:22.234Z,93.23
2018-06-08T09:06:51.597Z,84.63
2018-06-08T09:09:24.090Z,89.53
2018-06-08T09:11:56.287Z,89.70
2018-06-08T09:14:25.454Z,87.47
2018-06-08T09:16:55.152Z,88.70
2018-06-08T09:19:24.618Z,94.00
2018-06-08T09:21:55.632Z,82.00
2018-06-08T09:24:25.057Z,83.17
2018-06-08T09:26:54.102Z,87.10
2018-06-08T09:29:28.013Z,89.20
2018-06-08T09:31:57.522Z,86.80
2018-06-08T09:34:26.472Z,80.37
2018-06-08T09:36:55.904Z,78.43
2018-06-08T09:39:28.804Z,90.93
2018-06-08T09:42:02.116Z,84.80
2018-06-08T09:44:34.477Z,94.07
2018-06-08T09:47:03.940Z,84.17
2018-06-08T09:49:33.232Z,79.73
2018-06-08T09:52:02.236Z,73.73
2018-06-08T09:54:32.711Z,66.00
2018-06-08T09:57:07.979Z,58.70
2018-06-08T09:59:40.492Z,59.97
2018-06-08T10:02:09.910Z,60.27
2018-06-08T10:04:39.585Z,55.30
2018-06-08T10:07:09.614Z,57.50
2018-06-08T10:09:39.602Z,52.63
2018-06-08T10:12:08.940Z,44.50
2018-06-08T10:14:39.725Z,41.93
2018-06-08T10:17:10.775Z,37.97
2018-06-08T10:19:40.132Z,36.70
2018-06-08T10:22:09.744Z,35.47
2018-06-08T10:24:38.921Z,34.70
2018-06-08T10:27:08.477Z,35.00
2018-06-08T10:29:37.988Z,37.00
2018-06-08T10:32:07.696Z,37.37
2018-06-08T10:34:37.287Z,38.87
2018-06-08T10:37:06.348Z,38.43
2018-06-08T10:39:35.479Z,39.77
2018-06-08T10:42:04.601Z,40.13
2018-06-08T10:44:33.704Z,41.87
2018-06-08T10:47:02.964Z,39.50
2018-06-08T10:49:32.452Z,38.70
2018-06-08T10:52:02.005Z,42.43
2018-06-08T10:54:32.881Z,38.83
2018-06-08T10:57:03.351Z,39.47
2018-06-08T10:59:34.531Z,36.83
2018-06-08T11:02:04.012Z,35.33
2018-06-08T11:04:33.264Z,33.43
2018-06-08T11:07:02.696Z,34.60
2018-06-08T11:09:32.382Z,33.93
2018-06-08T11:12:02.087Z,33.30
2018-06-08T11:14:31.452Z,30.00
2018-06-08T11:17:01.085Z,26.60
2018-06-08T11:19:30.897Z,28.07
2018-06-08T11:22:04.521Z,30.47
2018-06-08T11:24:36.403Z,31.30
2018-06-08T11:29:35.665Z,29.60
2018-06-08T11:32:05.081Z,32.27
2018-06-08T11:34:34.629Z,35.87
2018-06-08T11:37:04.637Z,35.33
2018-06-08T11:39:37.246Z,34.63
2018-06-08T11:42:16.034Z,38.37
2018-06-08T11:44:48.449Z,36.03
2018-06-08T11:47:17.822Z,37.53
2018-06-08T11:49:48.117Z,41.93
2018-06-08T11:52:20.670Z,41.53
2018-06-08T11:54:52.576Z,41.20
2018-06-08T11:57:21.572Z,41.43
2018-06-08T11:59:51.155Z,41.60
2018-06-08T12:02:20.564Z,39.00
2018-06-08T12:04:52.091Z,39.50
2018-06-08T12:07:24.415Z,41.60
2018-06-08T12:09:55.129Z,41.97
2018-06-08T12:12:28.364Z,41.10
2018-06-08T12:15:01.791Z,39.03
2018-06-08T12:17:34.666Z,40.03
2018-06-08T12:20:03.653Z,38.47
2018-06-08T12:22:35.867Z,39.67
2018-06-08T12:25:05.122Z,39.37
2018-06-08T12:27:34.373Z,37.10
2018-06-08T12:30:05.764Z,38.50
2018-06-08T12:32:38.780Z,38.40
2018-06-08T12:35:15.580Z,37.87
2018-06-08T12:37:45.091Z,35.63
2018-06-08T12:40:20.880Z,35.57
2018-06-08T12:42:53.014Z,34.90
2018-06-08T12:45:32.014Z,36.33
2018-06-08T12:48:06.677Z,34.90
2018-06-08T12:50:42.808Z,33.90
2018-06-08T12:53:14.772Z,30.97
2018-06-08T12:55:45.550Z,29.30
2018-06-08T12:58:24.309Z,29.90
2018-06-08T13:00:56.413Z,28.60
2018-06-08T13:03:27.744Z,28.17
2018-06-08T13:06:01.401Z,25.53
2018-06-08T13:08:33.134Z,27.30
2018-06-08T13:11:04.569Z,27.67
2018-06-08T13:13:34.638Z,28.37
2018-06-08T13:16:08.579Z,28.00
2018-06-08T13:18:42.256Z,30.80
2018-06-08T13:21:16.439Z,28.70
2018-06-08T13:24:02.153Z,28.67
2018-06-08T13:26:33.297Z,33.33
2018-06-08T13:29:03.120Z,32.23
2018-06-08T13:31:40.640Z,34.90
2018-06-08T13:34:09.967Z,34.23
2018-06-08T13:36:39.500Z,33.23
2018-06-08T13:39:11.935Z,33.77
2018-06-08T13:41:47.003Z,35.97
2018-06-08T13:44:18.758Z,35.37
2018-06-08T13:46:48.477Z,35.33
2018-06-08T13:49:17.985Z,35.70
2018-06-08T13:51:47.570Z,38.40
2018-06-08T13:54:16.925Z,35.57
2018-06-08T13:56:46.000Z,34.70
2018-06-08T13:59:15.094Z,36.47
2018-06-08T14:01:44.232Z,34.50
2018-06-08T14:04:13.551Z,38.77
2018-06-08T14:06:43.061Z,37.03
2018-06-08T14:18:10.174Z,35.53
2018-06-08T14:29:09.719Z,33.47
2018-06-08T14:40:39.927Z,29.97
2018-06-08T14:45:09.872Z,30.50
2018-06-08T14:47:53.842Z,31.17
2018-06-08T14:53:28.313Z,32.00
2018-06-08T14:56:01.737Z,31.10
2018-06-08T16:13:23.606Z,23.03
2018-06-08T16:23:13.325Z,28.60
2018-06-08T16:55:00.775Z,34.07
2018-06-08T17:23:34.116Z,37.87
2018-06-08T17:32:20.277Z,41.87
2018-06-08T17:38:22.489Z,41.27
2018-06-08T17:52:56.762Z,44.53
2018-06-08T17:55:51.301Z,42.23
2018-06-08T17:58:50.733Z,44.97
2018-06-08T18:01:59.108Z,48.13
2018-06-08T18:18:08.008Z,46.70
2018-06-08T18:30:26.822Z,48.90
2018-06-08T18:33:18.375Z,51.03
2018-06-08T18:36:26.143Z,50.43
2018-06-08T18:39:20.877Z,52.67
2018-06-08T18:50:59.789Z,55.23
2018-06-08T18:59:52.685Z,52.50
2018-06-08T19:11:28.583Z,55.50
2018-06-08T19:24:00.747Z,60.43
2018-06-08T19:27:04.357Z,59.37
2018-06-08T19:32:56.826Z,61.73
2018-06-08T19:35:50.362Z,60.53
2018-06-08T19:44:52.092Z,57.57
2018-06-08T19:53:39.796Z,61.23
2018-06-08T20:05:40.511Z,65.63
2018-06-08T20:08:43.165Z,71.77
2018-06-08T20:14:47.703Z,76.57
2018-06-08T20:17:59.105Z,73.77
2018-06-08T20:23:45.435Z,75.40
2018-06-08T20:32:58.502Z,76.33
2018-06-08T20:38:53.304Z,79.10
2018-06-08T20:41:55.744Z,77.50
2018-06-08T20:47:33.774Z,77.03
2018-06-08T22:11:07.669Z,96.67
2018-06-08T22:22:40.226Z,96.90
2018-06-08T22:31:19.415Z,96.30
2018-06-08T22:34:08.924Z,99.77
2018-06-08T22:39:52.856Z,97.77
2018-06-08T22:42:44.949Z,100.83
2018-06-08T22:53:52.695Z,94.30
2018-06-08T23:02:11.765Z,95.50
2018-06-08T23:07:49.074Z,97.77
2018-06-08T23:40:42.547Z,99.97
2018-06-08T23:43:23.421Z,108.33
2018-06-08T23:46:12.546Z,103.33
2018-06-08T23:54:27.236Z,104.73
